KAOO/AOO METAR and TAF weather

Enter ICAO airport designator
Station Type Date Time Source
KAOO METAR 2021/07/24 20:53 UTC NOAA

KAOO 242053Z AUTO 16004KT 10SM OVC070 23/18 A3006 RMK AO2 RAE14 SLP174 P0000 60000 T02330183 58013


Station Type Date Time Source
KAOO Decoded METAR 2021/07/24 20:53 UTC NOAA

ALTOONA-BLAIR COUNTY AIRPORT, PA, United States (KAOO) 40-18N 78-19W 455M
Jul 24, 2021 - 04:53 PM EDT / 2021.07.24 2053 UTC
Wind: from the SSE (160 degrees) at 5 MPH (4 KT):0
Visibility: 10 mile(s):0
Sky conditions: overcast
Precipitation last hour: A trace
Temperature: 73.9 F (23.3 C)
Dew Point: 64.9 F (18.3 C)
Relative Humidity: 73%
Pressure (altimeter): 30.06 in. Hg (1017 hPa)
Pressure tendency: 0.04 inches (1.3 hPa) lower than three hours ago
ob: KAOO 242053Z AUTO 16004KT 10SM OVC070 23/18 A3006 RMK AO2 RAE14 SLP174 P0000 60000 T02330183 58013
cycle: 21

Station Type Date Time Source
KAOO TAF 2021/07/24 21:03 UTC NOAA

TAF
AMD KAOO 242101Z 2421/2518 17006KT P6SM OVC100
TEMPO 2421/2423 -SHRA
FM251300 25008G15KT P6SM VCSH BKN040

Example: see airport list